Time;durP1;ratioP1;P1;durP2;ratioP2;P2;SDS_P1;SDS_P2;PMS_P1;PMS_P2;Temp;Humidity;BMP_temperature;BMP_pressure;BME280_temperature;BME280_humidity;BME280_pressure;Samples;Min_cycle;Max_cycle;Signal;HPM_P1;HPM_P2
2023/06/09 00:02:11;;;;;;;7.93;7.20;;;;;;;15.11;100.00;97768.97;5053555;28;20594;-71
2023/06/09 00:04:38;;;;;;;7.93;7.17;;;;;;;15.14;100.00;97768.47;5053513;28;20250;-71
2023/06/09 00:07:04;;;;;;;8.13;7.43;;;;;;;15.20;100.00;97764.78;5053511;28;20248;-71
2023/06/09 00:09:31;;;;;;;8.17;7.47;;;;;;;15.19;100.00;97779.25;5053535;28;20205;-71
2023/06/09 00:11:58;;;;;;;8.27;7.47;;;;;;;15.05;100.00;97775.38;5053207;28;20740;-71
2023/06/09 00:14:24;;;;;;;7.07;6.50;;;;;;;14.90;100.00;97769.06;5053127;28;20205;-71
2023/06/09 00:16:51;;;;;;;8.03;7.20;;;;;;;14.87;100.00;97770.38;5053342;28;20240;-72
2023/06/09 00:19:17;;;;;;;7.70;6.90;;;;;;;14.82;100.00;97770.31;5053467;28;20209;-72
2023/06/09 00:21:49;;;;;;;8.37;7.00;;;;;;;14.66;100.00;97770.41;5053137;28;20205;-72
2023/06/09 00:24:20;;;;;;;8.37;7.47;;;;;;;14.62;100.00;97770.13;5053941;28;20213;-72
2023/06/09 00:26:47;;;;;;;9.73;7.77;;;;;;;14.57;100.00;97767.38;5053347;28;20669;-72
2023/06/09 00:29:16;;;;;;;8.47;7.77;;;;;;;14.52;100.00;97771.88;5053321;28;20205;-72
2023/06/09 00:31:42;;;;;;;7.70;7.10;;;;;;;14.46;100.00;97776.34;5053320;28;20209;-72
2023/06/09 00:34:09;;;;;;;8.50;7.10;;;;;;;14.39;100.00;97765.00;5053289;28;20296;-72
2023/06/09 00:36:36;;;;;;;8.53;7.60;;;;;;;14.32;100.00;97764.41;5053119;28;20232;-72
2023/06/09 00:39:02;;;;;;;7.53;6.93;;;;;;;14.34;100.00;97764.16;5053173;28;20201;-72
2023/06/09 00:41:29;;;;;;;9.00;7.67;;;;;;;14.30;100.00;97769.19;5052939;28;20569;-72
2023/06/09 00:43:55;;;;;;;8.23;7.53;;;;;;;14.33;100.00;97771.38;5053200;28;20220;-72
2023/06/09 00:46:23;;;;;;;9.13;7.63;;;;;;;14.44;100.00;97761.59;5053035;28;20217;-72
2023/06/09 00:48:50;;;;;;;8.27;7.60;;;;;;;14.44;100.00;97761.59;5053116;28;20209;-72
2023/06/09 00:51:17;;;;;;;8.97;8.17;;;;;;;14.40;100.00;97755.97;5051979;28;20205;-72
2023/06/09 00:53:43;;;;;;;7.73;7.10;;;;;;;14.46;100.00;97759.47;5053150;28;20201;-72
2023/06/09 00:56:11;;;;;;;7.83;7.10;;;;;;;14.26;100.00;97760.06;5052970;28;20233;-72
2023/06/09 00:58:38;;;;;;;8.30;7.60;;;;;;;14.37;100.00;97759.13;5053047;28;20205;-72
2023/06/09 01:01:05;;;;;;;7.30;6.70;;;;;;;14.36;100.00;97757.50;5053043;28;20201;-72
2023/06/09 01:03:32;;;;;;;10.53;7.20;;;;;;;14.17;100.00;97750.00;5053528;28;20212;-72
2023/06/09 01:06:12;;;;;;;8.23;7.20;;;;;;;14.05;100.00;97758.16;5055373;28;20225;-72
2023/06/09 01:08:42;;;;;;;8.17;7.30;;;;;;;14.05;100.00;97749.31;5056719;28;20190;-72
2023/06/09 01:11:21;;;;;;;7.30;6.70;;;;;;;14.00;100.00;97754.59;5055588;28;20190;-72
2023/06/09 01:14:13;;;;;;;9.80;7.90;;;;;;;14.03;100.00;97751.44;5056420;28;20703;-72
2023/06/09 01:16:47;;;;;;;8.37;7.63;;;;;;;14.06;100.00;97749.06;5056520;28;20244;-72
2023/06/09 01:19:34;;;;;;;8.50;7.57;;;;;;;14.04;100.00;97758.41;5056305;28;20189;-72
2023/06/09 01:22:09;;;;;;;8.03;7.30;;;;;;;13.96;100.00;97756.16;5055126;28;20185;-72
2023/06/09 01:24:58;;;;;;;7.70;7.00;;;;;;;13.90;100.00;97768.66;5056191;28;20215;-72
2023/06/09 01:27:26;;;;;;;8.50;7.73;;;;;;;13.85;100.00;97768.59;5055276;28;20614;-72
2023/06/09 01:29:53;;;;;;;8.70;7.90;;;;;;;13.75;100.00;97754.28;5056341;28;20220;-72
2023/06/09 01:32:22;;;;;;;7.80;7.20;;;;;;;13.79;100.00;97758.06;5056336;28;20209;-72
2023/06/09 01:34:49;;;;;;;8.40;7.20;;;;;;;13.74;100.00;97750.78;5056761;28;20209;-72
2023/06/09 01:37:16;;;;;;;8.00;7.20;;;;;;;13.88;100.00;97753.94;5056119;28;20240;-72
2023/06/09 01:39:43;;;;;;;7.80;7.10;;;;;;;13.76;100.00;97753.22;5056230;28;20209;-72
2023/06/09 01:42:09;;;;;;;8.83;8.03;;;;;;;13.75;100.00;97752.41;5056106;28;20213;-72
2023/06/09 01:44:36;;;;;;;8.43;7.63;;;;;;;13.73;100.00;97746.50;5055752;28;20672;-72
2023/06/09 01:47:03;;;;;;;8.27;7.50;;;;;;;13.76;100.00;97746.03;5055995;28;20228;-72
2023/06/09 01:49:46;;;;;;;8.60;7.53;;;;;;;13.85;100.00;97747.22;5055970;28;20212;-72
2023/06/09 01:52:19;;;;;;;10.17;7.73;;;;;;;13.78;100.00;97740.41;5055998;28;20194;-72
2023/06/09 01:54:55;;;;;;;8.33;7.30;;;;;;;13.84;100.00;97740.22;5055998;28;20197;-72
2023/06/09 01:57:56;;;;;;;8.33;7.60;;;;;;;13.76;100.00;97746.03;5055767;28;20259;-72
2023/06/09 02:00:26;;;;;;;9.20;8.10;;;;;;;13.76;100.00;97746.03;5055858;28;20200;-72
2023/06/09 02:02:55;;;;;;;10.87;8.80;;;;;;;13.73;100.00;97751.84;5054796;28;20684;-72
2023/06/09 02:05:23;;;;;;;8.57;7.77;;;;;;;13.65;100.00;97748.78;5054969;28;20577;-72
2023/06/09 02:07:51;;;;;;;8.93;8.03;;;;;;;13.64;100.00;97750.66;5055211;28;20296;-72
2023/06/09 02:10:23;;;;;;;9.50;8.47;;;;;;;13.68;100.00;97745.63;5055357;28;20696;-72
2023/06/09 02:12:49;;;;;;;8.87;8.07;;;;;;;13.55;100.00;97749.44;5055605;28;20201;-72
2023/06/09 02:15:16;;;;;;;8.67;7.53;;;;;;;13.52;100.00;97738.44;5055047;28;20205;-72
2023/06/09 02:17:42;;;;;;;8.33;7.60;;;;;;;13.51;100.00;97742.16;5053956;28;20691;-72
2023/06/09 02:20:10;;;;;;;9.17;8.37;;;;;;;13.59;100.00;97741.75;5055104;28;20691;-72
2023/06/09 02:22:37;;;;;;;8.93;7.83;;;;;;;13.61;100.00;97740.44;5055219;28;20211;-72
2023/06/09 02:25:04;;;;;;;8.43;7.63;;;;;;;13.58;100.00;97740.13;5055093;28;20652;-72
2023/06/09 02:27:30;;;;;;;8.63;7.90;;;;;;;13.56;100.00;97740.38;5055075;28;20224;-72
2023/06/09 02:29:57;;;;;;;8.50;7.63;;;;;;;13.61;100.00;97736.97;5055236;28;20209;-72
2023/06/09 02:32:23;;;;;;;8.23;7.43;;;;;;;13.64;100.00;97739.13;5055209;28;20205;-72
2023/06/09 02:34:50;;;;;;;8.40;7.50;;;;;;;13.72;100.00;97739.53;5054849;28;20580;-72
2023/06/09 02:37:16;;;;;;;8.33;7.53;;;;;;;13.64;100.00;97739.97;5054993;28;20237;-72
2023/06/09 02:39:43;;;;;;;8.03;7.30;;;;;;;13.64;100.00;97739.13;5054979;28;20573;-72
2023/06/09 02:42:09;;;;;;;8.17;7.43;;;;;;;13.47;100.00;97736.50;5054996;28;20208;-72
2023/06/09 02:44:37;;;;;;;8.40;7.70;;;;;;;13.48;100.00;97743.44;5054964;28;20244;-72
2023/06/09 02:47:06;;;;;;;8.90;8.00;;;;;;;13.50;100.00;97740.53;5054879;28;20221;-72
2023/06/09 02:49:33;;;;;;;8.30;7.60;;;;;;;13.46;100.00;97750.91;5054543;28;20209;-73
2023/06/09 02:52:00;;;;;;;8.20;7.50;;;;;;;13.50;100.00;97740.53;5054793;28;20202;-72
2023/06/09 02:54:26;;;;;;;8.20;7.33;;;;;;;13.40;100.00;97745.72;5054723;28;20259;-72
2023/06/09 02:56:53;;;;;;;9.23;8.10;;;;;;;13.34;100.00;97744.84;5054249;28;20680;-72
2023/06/09 02:59:19;;;;;;;7.90;7.20;;;;;;;13.41;100.00;97748.16;5054344;28;20209;-72
2023/06/09 03:01:45;;;;;;;10.67;7.90;;;;;;;13.35;100.00;97748.34;5054565;28;20243;-72
2023/06/09 03:04:12;;;;;;;8.73;8.03;;;;;;;13.32;100.00;97748.81;5054402;28;20228;-72
2023/06/09 03:06:39;;;;;;;8.93;7.70;;;;;;;13.28;100.00;97745.81;5054404;28;20232;-72
2023/06/09 03:09:06;;;;;;;7.87;7.17;;;;;;;13.32;100.00;97738.94;5054452;28;20295;-72
2023/06/09 03:11:32;;;;;;;8.03;7.23;;;;;;;13.33;100.00;97751.25;5054073;28;20614;-72
2023/06/09 03:13:58;;;;;;;8.30;7.47;;;;;;;13.34;100.00;97758.19;5054300;28;20205;-72
2023/06/09 03:16:25;;;;;;;8.27;7.40;;;;;;;13.29;100.00;97746.63;5054143;28;20232;-72
2023/06/09 03:18:51;;;;;;;9.47;8.43;;;;;;;13.31;100.00;97750.69;5054292;28;20217;-72
2023/06/09 03:21:18;;;;;;;8.20;7.57;;;;;;;13.28;100.00;97748.50;5054216;28;20205;-72
2023/06/09 03:23:45;;;;;;;8.63;7.83;;;;;;;13.24;100.00;97747.34;5053928;28;20215;-72
2023/06/09 03:26:11;;;;;;;8.57;7.67;;;;;;;13.29;100.00;97750.09;5053780;28;20703;-72
2023/06/09 03:28:38;;;;;;;8.77;7.97;;;;;;;13.23;100.00;97750.25;5053339;28;20694;-72
2023/06/09 03:31:04;;;;;;;11.30;7.53;;;;;;;13.19;100.00;97754.47;5053784;28;20669;-72
2023/06/09 03:33:30;;;;;;;8.50;7.67;;;;;;;13.23;100.00;97756.41;5053499;28;20701;-72
2023/06/09 03:35:57;;;;;;;8.97;8.23;;;;;;;13.27;100.00;97756.75;5053637;28;20590;-72
2023/06/09 03:38:23;;;;;;;8.50;7.73;;;;;;;13.23;100.00;97755.59;5053759;28;20205;-72
2023/06/09 03:40:50;;;;;;;8.80;8.00;;;;;;;13.23;100.00;97753.75;5053832;28;20216;-72
2023/06/09 03:43:16;;;;;;;8.40;7.60;;;;;;;13.26;100.00;97742.59;5053267;28;20674;-72
2023/06/09 03:45:42;;;;;;;8.23;7.57;;;;;;;13.14;100.00;97752.53;5053327;28;20233;-72
2023/06/09 03:48:09;;;;;;;8.40;7.50;;;;;;;13.10;100.00;97761.25;5053671;28;20209;-72
2023/06/09 03:50:35;;;;;;;8.67;7.60;;;;;;;13.07;100.00;97759.09;5053680;28;20290;-72
2023/06/09 03:53:01;;;;;;;10.60;8.20;;;;;;;13.07;100.00;97770.56;5053618;28;20205;-72
2023/06/09 03:55:31;;;;;;;11.23;8.17;;;;;;;13.13;100.00;97750.94;5053370;28;20215;-72
2023/06/09 03:57:57;;;;;;;11.60;7.77;;;;;;;13.17;100.00;97757.41;5053184;28;20228;-72
2023/06/09 04:00:24;;;;;;;9.13;8.23;;;;;;;13.19;100.00;97752.63;5053047;28;20696;-72
2023/06/09 04:02:50;;;;;;;9.03;8.17;;;;;;;13.16;100.00;97752.31;5053239;28;20205;-72
2023/06/09 04:05:17;;;;;;;8.83;8.13;;;;;;;13.25;100.00;97764.97;5052952;28;20211;-72
2023/06/09 04:07:43;;;;;;;10.17;7.90;;;;;;;13.27;100.00;97762.06;5053140;28;20205;-72
2023/06/09 04:10:10;;;;;;;9.73;8.70;;;;;;;13.35;100.00;97751.81;5053002;28;20699;-72
2023/06/09 04:12:37;;;;;;;9.43;8.53;;;;;;;13.42;100.00;97760.47;5053069;28;20220;-72
2023/06/09 04:15:06;;;;;;;9.43;8.63;;;;;;;13.46;100.00;97760.78;5052860;28;20668;-72
2023/06/09 04:17:34;;;;;;;10.90;9.80;;;;;;;13.41;100.00;97758.03;5052729;28;20227;-72
2023/06/09 04:20:01;;;;;;;10.00;9.10;;;;;;;13.48;100.00;97756.81;5053233;28;20205;-72
2023/06/09 04:22:27;;;;;;;10.90;10.00;;;;;;;13.54;100.00;97758.53;5052887;28;20205;-72
2023/06/09 04:24:54;;;;;;;11.10;10.10;;;;;;;13.67;100.00;97752.84;5053044;28;20197;-72
2023/06/09 04:27:21;;;;;;;12.20;11.00;;;;;;;13.74;100.00;97756.13;5053123;28;20221;-72
2023/06/09 04:29:49;;;;;;;12.73;10.90;;;;;;;13.82;100.00;97750.38;5054055;28;20359;-72
2023/06/09 04:32:16;;;;;;;12.43;11.37;;;;;;;13.93;100.00;97740.63;5053074;28;20201;-72
2023/06/09 04:34:46;;;;;;;13.13;11.80;;;;;;;13.97;100.00;97736.41;5053044;28;20205;-72
2023/06/09 04:37:13;;;;;;;12.37;11.10;;;;;;;13.93;100.00;97745.97;5052662;28;20315;-72
2023/06/09 04:39:41;;;;;;;10.70;9.70;;;;;;;14.02;100.00;97747.94;5053862;28;20220;-72
2023/06/09 04:42:11;;;;;;;9.83;8.93;;;;;;;14.01;100.00;97748.19;5056924;28;20288;-72
2023/06/09 04:44:39;;;;;;;9.23;8.30;;;;;;;13.92;100.00;97763.84;5056916;28;20255;-72
2023/06/09 04:47:07;;;;;;;8.93;8.13;;;;;;;13.95;100.00;97766.06;5056867;28;20221;-72
2023/06/09 04:49:35;;;;;;;9.53;8.63;;;;;;;14.01;100.00;97758.88;5056958;28;20205;-72
2023/06/09 04:52:02;;;;;;;9.97;9.07;;;;;;;14.10;100.00;97758.22;5056881;28;20251;-72
2023/06/09 04:54:29;;;;;;;10.63;9.83;;;;;;;14.24;100.00;97758.69;5056892;28;20609;-72
2023/06/09 04:56:57;;;;;;;11.50;10.40;;;;;;;14.34;100.00;97754.25;5056388;28;20661;-72
2023/06/09 04:59:28;;;;;;;13.10;11.80;;;;;;;14.43;100.00;97766.13;5056810;28;20236;-72
2023/06/09 05:01:55;;;;;;;11.97;10.83;;;;;;;14.56;100.00;97773.00;5056762;28;20194;-72
2023/06/09 05:04:22;;;;;;;12.53;11.27;;;;;;;14.58;100.00;97765.50;5056656;28;20217;-72
2023/06/09 05:06:48;;;;;;;11.70;10.60;;;;;;;14.90;100.00;97779.75;5056559;28;20221;-72
2023/06/09 05:09:15;;;;;;;11.77;10.43;;;;;;;15.19;100.00;97768.53;5056620;28;20259;-72
2023/06/09 05:11:41;;;;;;;11.10;9.97;;;;;;;15.41;100.00;97773.81;5056506;28;20240;-72
2023/06/09 05:14:08;;;;;;;10.57;9.67;;;;;;;15.64;100.00;97768.09;5056443;28;20209;-72
2023/06/09 05:16:36;;;;;;;9.93;9.13;;;;;;;16.05;100.00;97768.09;5056470;28;20291;-75
2023/06/09 05:19:02;;;;;;;10.07;9.13;;;;;;;16.56;100.00;97775.31;5056078;28;20664;-73
2023/06/09 05:21:29;;;;;;;9.30;8.40;;;;;;;17.04;100.00;97774.91;5056038;28;20687;-73
2023/06/09 05:23:55;;;;;;;8.73;7.93;;;;;;;17.22;100.00;97779.75;5055611;28;20299;-73
2023/06/09 05:26:22;;;;;;;10.20;9.20;;;;;;;17.22;100.00;97781.63;5056214;28;20221;-73
2023/06/09 05:28:49;;;;;;;9.30;8.50;;;;;;;16.97;100.00;97777.03;5056257;28;20226;-73
2023/06/09 05:31:16;;;;;;;9.87;8.27;;;;;;;16.80;100.00;97781.84;5055782;28;20672;-73
2023/06/09 05:33:44;;;;;;;11.03;9.47;;;;;;;16.78;100.00;97780.50;5055759;28;20205;-73
2023/06/09 05:36:12;;;;;;;10.20;8.53;;;;;;;16.64;100.00;97784.75;5056058;28;20233;-73
2023/06/09 05:38:38;;;;;;;10.10;9.23;;;;;;;16.57;100.00;97792.22;5055870;28;20205;-73
2023/06/09 05:41:05;;;;;;;9.73;8.60;;;;;;;16.56;100.00;97790.63;5055935;28;20205;-73
2023/06/09 05:43:31;;;;;;;10.93;9.83;;;;;;;16.54;100.00;97788.19;5055845;28;20207;-73
2023/06/09 05:45:58;;;;;;;11.33;10.33;;;;;;;16.48;100.00;97789.25;5055859;28;20236;-73
2023/06/09 05:48:24;;;;;;;10.23;9.43;;;;;;;16.53;100.00;97783.91;5056802;28;20209;-73
2023/06/09 05:50:51;;;;;;;11.00;10.10;;;;;;;16.56;100.00;97779.88;5055363;28;20206;-73
2023/06/09 05:53:18;;;;;;;10.63;9.53;;;;;;;16.57;100.00;97790.38;5055603;28;20596;-73
2023/06/09 05:55:45;;;;;;;10.63;9.83;;;;;;;16.66;100.00;97796.03;5055554;28;20225;-73
2023/06/09 05:58:17;;;;;;;10.40;9.60;;;;;;;16.71;100.00;97793.34;5055202;28;20224;-73
2023/06/09 06:00:44;;;;;;;10.33;9.47;;;;;;;16.81;100.00;97798.75;5055637;28;20255;-73
2023/06/09 06:03:11;;;;;;;9.10;8.40;;;;;;;16.83;100.00;97797.41;5055661;28;20213;-73
2023/06/09 06:05:38;;;;;;;9.67;8.67;;;;;;;16.88;100.00;97800.09;5055483;28;20228;-73
2023/06/09 06:08:05;;;;;;;10.67;9.70;;;;;;;16.96;100.00;97798.81;5054951;28;20664;-73
2023/06/09 06:10:31;;;;;;;10.00;9.10;;;;;;;16.91;100.00;97794.22;5055381;28;20202;-73
2023/06/09 06:12:59;;;;;;;10.67;9.77;;;;;;;17.13;100.00;97802.84;5055343;28;20220;-73
2023/06/09 06:15:25;;;;;;;11.23;10.20;;;;;;;17.22;100.00;97805.81;5055234;28;20212;-73
2023/06/09 06:17:51;;;;;;;10.73;9.67;;;;;;;17.21;100.00;97804.19;5055165;28;20225;-73
2023/06/09 06:20:18;;;;;;;10.30;9.40;;;;;;;17.28;100.00;97804.75;5055152;28;20205;-73
2023/06/09 06:22:44;;;;;;;10.27;9.40;;;;;;;17.26;100.00;97804.19;5054785;28;20209;-73
2023/06/09 06:25:13;;;;;;;9.93;9.13;;;;;;;17.32;100.00;97800.47;5054926;28;20204;-73
2023/06/09 06:27:41;;;;;;;9.30;8.50;;;;;;;17.28;100.00;97805.53;5054750;28;20568;-73
2023/06/09 06:30:09;;;;;;;9.30;8.60;;;;;;;17.33;100.00;97802.88;5054905;28;20209;-73
2023/06/09 06:32:36;;;;;;;10.03;8.87;;;;;;;17.29;100.00;97796.41;5054628;28;20216;-73
2023/06/09 06:35:03;;;;;;;8.67;7.97;;;;;;;17.37;100.00;97808.53;5054834;28;20201;-73
2023/06/09 06:37:29;;;;;;;8.83;8.10;;;;;;;17.53;100.00;97800.22;5054508;28;20229;-73
2023/06/09 06:39:56;;;;;;;9.13;8.37;;;;;;;17.57;100.00;97805.88;5054828;28;20209;-73
2023/06/09 06:42:22;;;;;;;10.00;9.20;;;;;;;17.57;100.00;97808.56;5054436;28;20687;-73
2023/06/09 06:44:48;;;;;;;9.00;8.10;;;;;;;17.67;100.00;97811.22;5054417;28;20209;-73
2023/06/09 06:47:15;;;;;;;9.10;8.30;;;;;;;17.89;100.00;97812.56;5054203;28;20730;-73
2023/06/09 06:49:41;;;;;;;10.57;9.33;;;;;;;18.06;100.00;97801.50;5054413;28;20672;-73
2023/06/09 06:52:07;;;;;;;8.47;7.70;;;;;;;18.28;100.00;97800.09;5054859;28;20665;-73
2023/06/09 06:54:34;;;;;;;9.20;8.40;;;;;;;18.21;100.00;97804.16;5054129;28;20683;-73
2023/06/09 06:57:01;;;;;;;7.30;6.70;;;;;;;18.34;100.00;97804.44;5053881;28;20688;-73
2023/06/09 06:59:27;;;;;;;8.37;7.67;;;;;;;18.35;100.00;97808.72;5054374;28;20255;-73
2023/06/09 07:01:53;;;;;;;8.50;7.80;;;;;;;18.35;100.00;97814.13;5053937;28;20327;-73
2023/06/09 07:04:20;;;;;;;8.70;7.90;;;;;;;18.33;100.00;97810.09;5053889;28;20217;-73
2023/06/09 07:06:46;;;;;;;8.50;7.30;;;;;;;18.43;100.00;97820.81;5054128;28;20218;-73
2023/06/09 07:09:12;;;;;;;7.60;6.63;;;;;;;18.72;99.01;97817.19;5054245;28;20209;-73
2023/06/09 07:11:43;;;;;;;8.77;6.60;;;;;;;18.61;99.49;97818.34;5054035;28;20205;-73
2023/06/09 07:14:10;;;;;;;7.73;7.03;;;;;;;18.61;100.00;97818.34;5054164;28;20185;-73
2023/06/09 07:16:36;;;;;;;9.13;8.23;;;;;;;18.69;100.00;97815.03;5053990;28;20232;-73
2023/06/09 07:19:03;;;;;;;8.63;7.93;;;;;;;18.80;100.00;97815.81;5053975;28;20207;-73
2023/06/09 07:21:32;;;;;;;7.87;7.27;;;;;;;18.92;100.00;97822.47;5053824;28;20209;-73
2023/06/09 07:23:58;;;;;;;7.20;6.50;;;;;;;18.98;100.00;97824.06;5053430;28;20215;-73
2023/06/09 07:26:25;;;;;;;7.77;6.97;;;;;;;19.12;100.00;97822.38;5053887;28;20577;-73
2023/06/09 07:28:51;;;;;;;7.23;6.63;;;;;;;19.37;99.38;97818.75;5053735;28;20205;-73
2023/06/09 07:31:18;;;;;;;8.37;7.00;;;;;;;19.48;98.10;97823.78;5053856;28;20201;-73
2023/06/09 07:33:44;;;;;;;7.00;6.40;;;;;;;19.45;97.46;97827.03;5053710;28;20212;-73
2023/06/09 07:36:11;;;;;;;7.10;6.47;;;;;;;19.45;99.26;97826.25;5053681;28;20225;-73
2023/06/09 07:38:38;;;;;;;6.87;5.80;;;;;;;19.71;98.61;97833.03;5053347;28;20243;-73
2023/06/09 07:41:05;;;;;;;6.77;6.10;;;;;;;19.77;95.22;97833.81;5053682;28;20209;-73
2023/06/09 07:43:32;;;;;;;6.73;6.23;;;;;;;19.92;98.71;97830.97;5053670;28;20212;-73
2023/06/09 07:45:58;;;;;;;6.77;6.27;;;;;;;20.01;96.17;97834.66;5053801;28;20235;-73
2023/06/09 07:48:25;;;;;;;5.93;5.43;;;;;;;20.06;92.25;97837.31;5053458;28;20668;-73
2023/06/09 07:50:52;;;;;;;6.30;5.70;;;;;;;20.06;92.09;97831.91;5053538;28;20209;-73
2023/06/09 07:53:20;;;;;;;6.33;5.73;;;;;;;20.16;93.53;97826.47;5053650;28;20255;-73
2023/06/09 07:55:46;;;;;;;6.10;5.60;;;;;;;20.40;94.67;97827.28;5053381;28;20315;-73
2023/06/09 07:58:12;;;;;;;6.53;5.63;;;;;;;20.41;88.81;97829.69;5053398;28;20225;-73
2023/06/09 08:00:39;;;;;;;6.47;5.80;;;;;;;20.14;91.64;97834.03;5053522;28;20229;-73
2023/06/09 08:03:05;;;;;;;6.60;5.47;;;;;;;20.13;90.46;97824.31;5053593;28;20209;-73
2023/06/09 08:05:32;;;;;;;6.00;5.20;;;;;;;20.35;90.95;97820.03;5053400;28;20233;-73
2023/06/09 08:08:01;;;;;;;5.77;5.27;;;;;;;20.55;88.58;97811.72;5053474;28;20208;-73
2023/06/09 08:10:27;;;;;;;4.93;4.53;;;;;;;20.73;83.67;97802.03;5053035;28;20220;-73
2023/06/09 08:12:53;;;;;;;5.10;4.70;;;;;;;20.88;84.31;97810.75;5052994;28;20216;-73
2023/06/09 08:15:20;;;;;;;5.53;4.13;;;;;;;21.04;82.30;97812.19;5053413;28;20632;-73
2023/06/09 08:17:47;;;;;;;6.57;4.20;;;;;;;21.19;81.57;97801.16;5052922;28;20732;-73
2023/06/09 08:20:13;;;;;;;4.23;3.90;;;;;;;21.33;83.57;97804.72;5052896;28;20664;-73
2023/06/09 08:22:40;;;;;;;4.63;4.13;;;;;;;21.52;79.27;97808.22;5052905;28;20206;-73
2023/06/09 08:25:07;;;;;;;4.57;3.60;;;;;;;21.76;73.84;97810.84;5053184;28;20194;-73
2023/06/09 08:27:33;;;;;;;3.78;3.38;;;;;;;21.86;72.92;97807.94;5052967;28;20221;-73
2023/06/09 08:29:59;;;;;;;3.42;3.13;;;;;;;21.92;73.40;97802.16;5053435;28;20211;-73
2023/06/09 08:32:26;;;;;;;4.00;3.40;;;;;;;21.97;73.03;97793.94;5053174;28;20209;-73
2023/06/09 08:34:53;;;;;;;3.65;3.35;;;;;;;21.85;75.15;97796.34;5053210;28;20209;-73
2023/06/09 08:37:19;;;;;;;3.13;2.92;;;;;;;22.16;73.19;97791.19;5052950;28;20314;-73
2023/06/09 08:39:47;;;;;;;3.05;2.67;;;;;;;22.40;71.74;97794.50;5053176;28;20311;-73
2023/06/09 08:42:22;;;;;;;3.05;2.83;;;;;;;22.42;69.91;97784.97;5052692;28;20549;-73
2023/06/09 08:44:50;;;;;;;2.72;2.58;;;;;;;22.54;69.35;97779.06;5052688;28;20664;-73
2023/06/09 08:47:21;;;;;;;3.50;2.90;;;;;;;22.70;68.46;97793.94;5052739;28;20708;-73
2023/06/09 08:49:53;;;;;;;2.90;2.70;;;;;;;22.67;70.15;97787.22;5053070;28;20194;-73
2023/06/09 08:52:20;;;;;;;2.55;2.35;;;;;;;22.64;65.64;97779.69;5053060;28;20231;-73
2023/06/09 08:54:47;;;;;;;5.05;2.80;;;;;;;22.64;65.46;97782.38;5052967;28;20216;-73
2023/06/09 08:57:14;;;;;;;3.10;2.90;;;;;;;22.71;67.50;97777.34;5052494;28;20229;-73
2023/06/09 08:59:41;;;;;;;2.83;2.63;;;;;;;22.91;68.40;97781.53;5052625;28;20664;-73
2023/06/09 09:02:10;;;;;;;3.40;2.50;;;;;;;23.05;64.16;97780.41;5052458;28;20240;-73
2023/06/09 09:04:38;;;;;;;3.33;2.78;;;;;;;22.97;64.97;97781.13;5052878;28;20209;-73
2023/06/09 09:07:09;;;;;;;3.35;3.10;;;;;;;23.19;64.73;97783.09;5052838;28;20261;-73
2023/06/09 09:09:35;;;;;;;4.93;3.20;;;;;;;23.20;66.92;97780.09;5052496;28;20663;-73
2023/06/09 09:12:03;;;;;;;3.58;2.85;;;;;;;23.12;65.95;97788.94;5052875;28;20374;-73
2023/06/09 09:14:29;;;;;;;3.15;2.95;;;;;;;23.18;64.95;97786.91;5052351;28;20233;-73
2023/06/09 09:16:55;;;;;;;4.43;2.97;;;;;;;23.29;61.11;97778.25;5052434;28;20705;-73
2023/06/09 09:19:27;;;;;;;8.45;3.60;;;;;;;23.36;61.04;97778.63;5052185;28;20229;-73
2023/06/09 09:21:56;;;;;;;3.58;3.28;;;;;;;23.49;64.48;97777.78;5052113;28;20263;-73
2023/06/09 09:24:29;;;;;;;5.00;3.22;;;;;;;23.42;62.74;97777.41;5052267;28;20213;-73
2023/06/09 09:26:59;;;;;;;2.83;2.63;;;;;;;23.59;62.16;97790.28;5055103;28;20229;-73
2023/06/09 09:29:29;;;;;;;4.35;2.90;;;;;;;23.83;61.46;97783.44;5056281;28;20189;-73
2023/06/09 09:31:58;;;;;;;4.18;3.50;;;;;;;23.82;63.70;97775.59;5056103;28;20244;-73
2023/06/09 09:34:26;;;;;;;3.97;3.58;;;;;;;23.78;62.82;97777.34;5056115;28;20545;-73
2023/06/09 09:36:56;;;;;;;3.25;2.80;;;;;;;24.01;63.29;97777.00;5055623;28;20695;-73
2023/06/09 09:39:25;;;;;;;3.42;3.22;;;;;;;23.80;64.38;97777.81;5056077;28;20229;-73
2023/06/09 09:42:07;;;;;;;3.40;3.20;;;;;;;23.88;61.30;97777.09;5056043;28;20211;-73
2023/06/09 09:44:41;;;;;;;3.40;3.20;;;;;;;24.12;61.42;97774.84;5055616;28;20569;-73
2023/06/09 09:47:09;;;;;;;3.22;3.03;;;;;;;24.02;60.85;97765.03;5055934;28;20227;-74
2023/06/09 09:49:36;;;;;;;3.33;3.13;;;;;;;24.08;62.75;97760.28;5055621;28;20665;-73
2023/06/09 09:52:06;;;;;;;3.60;3.30;;;;;;;24.28;63.55;97755.09;5055936;28;20213;-73
2023/06/09 09:54:36;;;;;;;3.95;3.35;;;;;;;24.33;64.11;97754.94;5055897;28;20212;-73
2023/06/09 09:57:03;;;;;;;3.30;3.00;;;;;;;24.37;61.98;97747.78;5055494;28;20696;-73
2023/06/09 09:59:30;;;;;;;3.30;3.10;;;;;;;24.50;63.09;97744.16;5055407;28;20221;-73
2023/06/09 10:01:56;;;;;;;5.53;3.25;;;;;;;24.39;60.03;97747.47;5056230;28;20262;-73
2023/06/09 10:04:24;;;;;;;3.17;2.97;;;;;;;24.43;62.25;97741.06;5055550;28;20734;-73
2023/06/09 10:06:54;;;;;;;3.75;3.45;;;;;;;24.65;63.20;97730.13;5055562;28;20221;-73
2023/06/09 10:09:25;;;;;;;3.60;3.28;;;;;;;24.63;61.43;97739.72;5055561;28;20202;-73
2023/06/09 10:11:55;;;;;;;3.40;3.10;;;;;;;24.69;61.97;97744.69;5055440;28;20186;-73
2023/06/09 10:14:22;;;;;;;3.50;3.15;;;;;;;24.84;61.54;97740.72;5055094;28;20244;-73
2023/06/09 10:16:51;;;;;;;3.47;3.15;;;;;;;24.93;58.85;97741.53;5055494;28;20221;-73
2023/06/09 10:19:18;;;;;;;3.00;2.80;;;;;;;25.05;58.27;97741.72;5055185;28;20229;-73
2023/06/09 10:21:47;;;;;;;2.80;2.60;;;;;;;25.12;63.68;97742.03;5054600;28;20574;-73
2023/06/09 10:24:13;;;;;;;3.03;2.80;;;;;;;25.01;56.69;97738.03;5054909;28;20240;-73
2023/06/09 10:26:40;;;;;;;3.28;3.08;;;;;;;24.72;58.15;97740.53;5054984;28;20225;-73
2023/06/09 10:29:09;;;;;;;3.15;2.92;;;;;;;24.70;56.47;97740.84;5055190;28;20201;-73
2023/06/09 10:31:41;;;;;;;4.47;3.03;;;;;;;24.69;57.37;97733.03;5055067;28;20205;-73
2023/06/09 10:34:09;;;;;;;3.70;3.08;;;;;;;25.02;56.10;97729.53;5054764;28;20625;-73
2023/06/09 10:36:38;;;;;;;3.17;2.97;;;;;;;25.02;54.79;97726.03;5053474;28;20235;-73
2023/06/09 10:39:18;;;;;;;3.10;2.90;;;;;;;25.26;57.82;97729.06;5054077;28;20228;-73
2023/06/09 10:42:11;;;;;;;2.90;2.70;;;;;;;25.54;49.33;97736.59;5054861;28;20212;-74
2023/06/09 10:45:14;;;;;;;2.63;2.42;;;;;;;25.64;49.65;97727.31;5054542;28;20194;-73
2023/06/09 10:47:44;;;;;;;2.42;2.22;;;;;;;25.69;44.98;97741.53;5055364;28;20189;-73
2023/06/09 10:50:25;;;;;;;2.88;2.67;;;;;;;25.61;43.51;97733.38;5054899;28;20216;-73
2023/06/09 10:52:54;;;;;;;2.72;2.42;;;;;;;25.61;45.68;97736.09;5054590;28;20303;-73
2023/06/09 10:55:22;;;;;;;2.22;2.03;;;;;;;25.42;44.10;97727.50;5054251;28;20255;-73
2023/06/09 10:57:50;;;;;;;2.30;2.15;;;;;;;25.35;45.73;97729.88;5054343;28;20228;-73
2023/06/09 11:00:17;;;;;;;2.88;2.58;;;;;;;25.55;46.51;97726.53;5054208;28;20208;-73
2023/06/09 11:02:46;;;;;;;2.45;2.25;;;;;;;25.61;47.40;97730.66;5054155;28;20205;-73
2023/06/09 11:05:13;;;;;;;2.92;2.72;;;;;;;25.67;45.66;97729.38;5053976;28;20209;-73
2023/06/09 11:07:45;;;;;;;2.60;2.42;;;;;;;25.67;44.13;97722.00;5054173;28;20208;-73
2023/06/09 11:10:14;;;;;;;3.25;2.70;;;;;;;25.80;45.68;97725.66;5054086;28;20271;-73
2023/06/09 11:12:46;;;;;;;3.13;2.42;;;;;;;25.68;46.72;97715.44;5054042;28;20205;-73
2023/06/09 11:15:15;;;;;;;3.38;2.38;;;;;;;25.78;47.35;97714.28;5053861;28;20212;-73
2023/06/09 11:17:43;;;;;;;2.75;2.55;;;;;;;25.74;45.13;97718.78;5053773;28;20209;-73
2023/06/09 11:20:09;;;;;;;2.38;2.28;;;;;;;25.70;47.33;97717.84;5053919;28;20211;-73
2023/06/09 11:22:59;;;;;;;3.72;2.60;;;;;;;25.65;47.20;97710.63;5053881;28;20545;-73
2023/06/09 11:25:26;;;;;;;2.75;2.55;;;;;;;25.53;45.67;97706.97;5053678;28;20262;-73
2023/06/09 11:27:55;;;;;;;2.50;2.30;;;;;;;25.72;50.92;97699.22;5053517;28;20213;-73
2023/06/09 11:30:32;;;;;;;4.07;2.78;;;;;;;25.74;45.38;97700.50;5054135;28;20232;-73
2023/06/09 11:33:01;;;;;;;3.15;2.85;;;;;;;25.97;44.55;97692.94;5053949;28;20193;-73